sensor_id;sensor_type;location;lat;lon;timestamp;temperature;humidity
18083;DHT22;9168;51.194;6.840;2023-08-17T00:00:52;19.90;99.90
18083;DHT22;9168;51.194;6.840;2023-08-17T00:03:21;19.90;99.90
18083;DHT22;9168;51.194;6.840;2023-08-17T00:05:47;19.90;99.90
18083;DHT22;9168;51.194;6.840;2023-08-17T00:08:15;19.80;99.90
18083;DHT22;9168;51.194;6.840;2023-08-17T00:10:42;19.80;99.90
18083;DHT22;9168;51.194;6.840;2023-08-17T00:13:09;19.70;99.90
18083;DHT22;9168;51.194;6.840;2023-08-17T00:15:37;19.70;99.90
18083;DHT22;9168;51.194;6.840;2023-08-17T00:18:04;19.70;99.90
18083;DHT22;9168;51.194;6.840;2023-08-17T00:20:32;19.70;99.90
18083;DHT22;9168;51.194;6.840;2023-08-17T00:22:59;19.70;99.90
18083;DHT22;9168;51.194;6.840;2023-08-17T00:25:26;19.60;99.90
18083;DHT22;9168;51.194;6.840;2023-08-17T00:27:53;19.60;99.90
18083;DHT22;9168;51.194;6.840;2023-08-17T00:30:20;19.50;99.90
18083;DHT22;9168;51.194;6.840;2023-08-17T00:32:47;19.60;99.90
18083;DHT22;9168;51.194;6.840;2023-08-17T00:35:14;19.60;99.90
18083;DHT22;9168;51.194;6.840;2023-08-17T00:37:42;19.50;99.90
18083;DHT22;9168;51.194;6.840;2023-08-17T00:40:10;19.50;99.90
18083;DHT22;9168;51.194;6.840;2023-08-17T00:42:37;19.50;99.90
18083;DHT22;9168;51.194;6.840;2023-08-17T00:45:05;19.60;99.90
18083;DHT22;9168;51.194;6.840;2023-08-17T00:47:32;19.50;99.90
18083;DHT22;9168;51.194;6.840;2023-08-17T00:49:59;19.50;99.90
18083;DHT22;9168;51.194;6.840;2023-08-17T00:52:26;19.50;99.90
18083;DHT22;9168;51.194;6.840;2023-08-17T00:54:55;19.50;99.90
18083;DHT22;9168;51.194;6.840;2023-08-17T00:57:22;19.50;99.90
18083;DHT22;9168;51.194;6.840;2023-08-17T00:59:50;19.50;99.90
18083;DHT22;9168;51.194;6.840;2023-08-17T01:02:17;19.50;99.90
18083;DHT22;9168;51.194;6.840;2023-08-17T01:04:44;19.50;99.90
18083;DHT22;9168;51.194;6.840;2023-08-17T01:07:12;19.40;99.90
18083;DHT22;9168;51.194;6.840;2023-08-17T01:09:38;19.40;99.90
18083;DHT22;9168;51.194;6.840;2023-08-17T01:12:13;19.40;99.90
18083;DHT22;9168;51.194;6.840;2023-08-17T01:14:50;19.40;99.90
18083;DHT22;9168;51.194;6.840;2023-08-17T01:17:23;19.30;99.90
18083;DHT22;9168;51.194;6.840;2023-08-17T01:19:52;19.30;99.90
18083;DHT22;9168;51.194;6.840;2023-08-17T01:22:21;19.30;99.90
18083;DHT22;9168;51.194;6.840;2023-08-17T01:24:50;19.30;99.90
18083;DHT22;9168;51.194;6.840;2023-08-17T01:27:22;19.20;99.90
18083;DHT22;9168;51.194;6.840;2023-08-17T01:29:50;19.20;99.90
18083;DHT22;9168;51.194;6.840;2023-08-17T01:32:22;19.20;99.90
18083;DHT22;9168;51.194;6.840;2023-08-17T01:34:57;19.20;99.90
18083;DHT22;9168;51.194;6.840;2023-08-17T01:37:28;19.20;99.90
18083;DHT22;9168;51.194;6.840;2023-08-17T01:39:58;19.20;99.90
18083;DHT22;9168;51.194;6.840;2023-08-17T01:42:26;19.20;99.90
18083;DHT22;9168;51.194;6.840;2023-08-17T01:44:53;19.20;99.90
18083;DHT22;9168;51.194;6.840;2023-08-17T01:47:20;19.20;99.90
18083;DHT22;9168;51.194;6.840;2023-08-17T01:49:48;19.20;99.90
18083;DHT22;9168;51.194;6.840;2023-08-17T01:52:15;19.20;99.90
18083;DHT22;9168;51.194;6.840;2023-08-17T01:54:42;19.20;99.90
18083;DHT22;9168;51.194;6.840;2023-08-17T01:57:10;19.20;99.90
18083;DHT22;9168;51.194;6.840;2023-08-17T01:59:37;19.20;99.90
18083;DHT22;9168;51.194;6.840;2023-08-17T02:02:04;19.20;99.90
18083;DHT22;9168;51.194;6.840;2023-08-17T02:04:31;19.20;99.90
18083;DHT22;9168;51.194;6.840;2023-08-17T02:06:57;19.20;99.90
18083;DHT22;9168;51.194;6.840;2023-08-17T02:09:24;19.10;99.90
18083;DHT22;9168;51.194;6.840;2023-08-17T02:11:51;19.20;99.90
18083;DHT22;9168;51.194;6.840;2023-08-17T02:14:19;19.10;99.90
18083;DHT22;9168;51.194;6.840;2023-08-17T02:16:46;19.10;99.90
18083;DHT22;9168;51.194;6.840;2023-08-17T02:19:13;19.10;99.90
18083;DHT22;9168;51.194;6.840;2023-08-17T02:21:40;19.10;99.90
18083;DHT22;9168;51.194;6.840;2023-08-17T02:24:07;19.10;99.90
18083;DHT22;9168;51.194;6.840;2023-08-17T02:26:34;19.10;99.90
18083;DHT22;9168;51.194;6.840;2023-08-17T02:29:01;19.10;99.90
18083;DHT22;9168;51.194;6.840;2023-08-17T02:31:29;19.10;99.90
18083;DHT22;9168;51.194;6.840;2023-08-17T02:33:56;19.10;99.90
18083;DHT22;9168;51.194;6.840;2023-08-17T02:36:26;19.10;99.90
18083;DHT22;9168;51.194;6.840;2023-08-17T02:38:53;19.10;99.90
18083;DHT22;9168;51.194;6.840;2023-08-17T02:41:20;19.10;99.90
18083;DHT22;9168;51.194;6.840;2023-08-17T02:43:47;19.10;99.90
18083;DHT22;9168;51.194;6.840;2023-08-17T02:46:13;19.10;99.90
18083;DHT22;9168;51.194;6.840;2023-08-17T02:48:42;19.10;99.90
18083;DHT22;9168;51.194;6.840;2023-08-17T02:51:09;19.10;99.90
18083;DHT22;9168;51.194;6.840;2023-08-17T02:53:35;19.10;99.90
18083;DHT22;9168;51.194;6.840;2023-08-17T02:56:03;19.10;99.90
18083;DHT22;9168;51.194;6.840;2023-08-17T02:58:29;19.10;99.90
18083;DHT22;9168;51.194;6.840;2023-08-17T03:00:56;19.10;99.90
18083;DHT22;9168;51.194;6.840;2023-08-17T03:03:23;19.00;99.90
18083;DHT22;9168;51.194;6.840;2023-08-17T03:05:52;19.00;99.90
18083;DHT22;9168;51.194;6.840;2023-08-17T03:08:18;19.00;99.90
18083;DHT22;9168;51.194;6.840;2023-08-17T03:10:45;18.90;99.90
18083;DHT22;9168;51.194;6.840;2023-08-17T03:13:12;18.80;99.90
18083;DHT22;9168;51.194;6.840;2023-08-17T03:15:39;18.80;99.90
18083;DHT22;9168;51.194;6.840;2023-08-17T03:18:06;18.80;99.90
18083;DHT22;9168;51.194;6.840;2023-08-17T03:20:33;18.80;99.90
18083;DHT22;9168;51.194;6.840;2023-08-17T03:23:02;18.80;99.90
18083;DHT22;9168;51.194;6.840;2023-08-17T03:25:31;18.80;99.90
18083;DHT22;9168;51.194;6.840;2023-08-17T03:27:59;18.80;99.90
18083;DHT22;9168;51.194;6.840;2023-08-17T03:30:26;18.80;99.90
18083;DHT22;9168;51.194;6.840;2023-08-17T03:32:53;18.80;99.90
18083;DHT22;9168;51.194;6.840;2023-08-17T03:35:19;18.80;99.90
18083;DHT22;9168;51.194;6.840;2023-08-17T03:37:46;18.90;99.90
18083;DHT22;9168;51.194;6.840;2023-08-17T03:40:15;18.90;99.90
18083;DHT22;9168;51.194;6.840;2023-08-17T03:42:42;18.90;99.90
18083;DHT22;9168;51.194;6.840;2023-08-17T03:45:09;18.90;99.90
18083;DHT22;9168;51.194;6.840;2023-08-17T03:47:36;19.00;99.90
18083;DHT22;9168;51.194;6.840;2023-08-17T03:50:03;19.00;99.90
18083;DHT22;9168;51.194;6.840;2023-08-17T03:52:30;19.00;99.90
18083;DHT22;9168;51.194;6.840;2023-08-17T03:54:57;18.90;99.90
18083;DHT22;9168;51.194;6.840;2023-08-17T03:57:25;18.90;99.90
18083;DHT22;9168;51.194;6.840;2023-08-17T03:59:52;18.90;99.90
18083;DHT22;9168;51.194;6.840;2023-08-17T04:02:19;18.90;99.90
18083;DHT22;9168;51.194;6.840;2023-08-17T04:04:46;18.90;99.90
18083;DHT22;9168;51.194;6.840;2023-08-17T04:07:20;18.90;99.90
18083;DHT22;9168;51.194;6.840;2023-08-17T04:09:48;18.90;99.90
18083;DHT22;9168;51.194;6.840;2023-08-17T04:12:14;18.90;99.90
18083;DHT22;9168;51.194;6.840;2023-08-17T04:14:43;18.90;99.90
18083;DHT22;9168;51.194;6.840;2023-08-17T04:17:10;18.90;99.90
18083;DHT22;9168;51.194;6.840;2023-08-17T04:19:37;18.90;99.90
18083;DHT22;9168;51.194;6.840;2023-08-17T04:22:04;18.80;99.90
18083;DHT22;9168;51.194;6.840;2023-08-17T04:24:31;18.80;99.90
18083;DHT22;9168;51.194;6.840;2023-08-17T04:26:58;18.80;99.90
18083;DHT22;9168;51.194;6.840;2023-08-17T04:29:24;18.80;99.90
18083;DHT22;9168;51.194;6.840;2023-08-17T04:31:53;18.80;99.90
18083;DHT22;9168;51.194;6.840;2023-08-17T04:34:20;18.90;99.90
18083;DHT22;9168;51.194;6.840;2023-08-17T04:36:47;18.80;99.90
18083;DHT22;9168;51.194;6.840;2023-08-17T04:39:14;18.80;99.90
18083;DHT22;9168;51.194;6.840;2023-08-17T04:41:40;18.80;99.90
18083;DHT22;9168;51.194;6.840;2023-08-17T04:44:07;18.80;99.90
18083;DHT22;9168;51.194;6.840;2023-08-17T04:46:35;18.80;99.90
18083;DHT22;9168;51.194;6.840;2023-08-17T04:49:03;18.80;99.90
18083;DHT22;9168;51.194;6.840;2023-08-17T04:51:30;18.80;99.90
18083;DHT22;9168;51.194;6.840;2023-08-17T04:53:57;18.80;99.90
18083;DHT22;9168;51.194;6.840;2023-08-17T04:56:24;18.80;99.90
18083;DHT22;9168;51.194;6.840;2023-08-17T04:58:51;18.80;99.90
18083;DHT22;9168;51.194;6.840;2023-08-17T05:01:18;18.80;99.90
18083;DHT22;9168;51.194;6.840;2023-08-17T05:03:45;18.80;99.90
18083;DHT22;9168;51.194;6.840;2023-08-17T05:06:13;18.80;99.90
18083;DHT22;9168;51.194;6.840;2023-08-17T05:08:40;18.80;99.90
18083;DHT22;9168;51.194;6.840;2023-08-17T05:11:07;18.80;99.90
18083;DHT22;9168;51.194;6.840;2023-08-17T05:13:34;18.80;99.90
18083;DHT22;9168;51.194;6.840;2023-08-17T05:16:01;18.80;99.90
18083;DHT22;9168;51.194;6.840;2023-08-17T05:18:30;18.80;99.90
18083;DHT22;9168;51.194;6.840;2023-08-17T05:20:57;18.80;99.90
18083;DHT22;9168;51.194;6.840;2023-08-17T05:23:26;18.80;99.90
18083;DHT22;9168;51.194;6.840;2023-08-17T05:25:52;18.80;99.90
18083;DHT22;9168;51.194;6.840;2023-08-17T05:28:19;18.80;99.90
18083;DHT22;9168;51.194;6.840;2023-08-17T05:30:46;18.80;99.90
18083;DHT22;9168;51.194;6.840;2023-08-17T05:33:13;18.80;99.90
18083;DHT22;9168;51.194;6.840;2023-08-17T05:35:40;18.80;99.90
18083;DHT22;9168;51.194;6.840;2023-08-17T05:38:08;18.90;99.90
18083;DHT22;9168;51.194;6.840;2023-08-17T05:40:36;18.90;99.90
18083;DHT22;9168;51.194;6.840;2023-08-17T05:43:03;18.90;99.90
18083;DHT22;9168;51.194;6.840;2023-08-17T05:45:30;18.90;99.90
18083;DHT22;9168;51.194;6.840;2023-08-17T05:47:57;18.90;99.90
18083;DHT22;9168;51.194;6.840;2023-08-17T05:50:24;19.00;99.90
18083;DHT22;9168;51.194;6.840;2023-08-17T05:52:51;18.90;99.90
18083;DHT22;9168;51.194;6.840;2023-08-17T05:55:18;18.90;99.90
18083;DHT22;9168;51.194;6.840;2023-08-17T05:57:47;18.90;99.90
18083;DHT22;9168;51.194;6.840;2023-08-17T06:00:14;18.90;99.90
18083;DHT22;9168;51.194;6.840;2023-08-17T06:02:41;19.00;99.90
18083;DHT22;9168;51.194;6.840;2023-08-17T06:05:09;19.00;99.90
18083;DHT22;9168;51.194;6.840;2023-08-17T06:07:36;19.00;99.90
18083;DHT22;9168;51.194;6.840;2023-08-17T06:10:04;19.00;99.90
18083;DHT22;9168;51.194;6.840;2023-08-17T06:12:31;19.00;99.90
18083;DHT22;9168;51.194;6.840;2023-08-17T06:15:01;19.00;99.90
18083;DHT22;9168;51.194;6.840;2023-08-17T06:17:29;19.10;99.90
18083;DHT22;9168;51.194;6.840;2023-08-17T06:19:56;19.10;99.90
18083;DHT22;9168;51.194;6.840;2023-08-17T06:22:23;19.10;99.90
18083;DHT22;9168;51.194;6.840;2023-08-17T06:24:50;19.10;99.90
18083;DHT22;9168;51.194;6.840;2023-08-17T06:27:16;19.20;99.90
18083;DHT22;9168;51.194;6.840;2023-08-17T06:29:43;19.20;99.90
18083;DHT22;9168;51.194;6.840;2023-08-17T06:32:12;19.20;99.90
18083;DHT22;9168;51.194;6.840;2023-08-17T06:34:38;19.20;99.90
18083;DHT22;9168;51.194;6.840;2023-08-17T06:37:05;19.20;99.90
18083;DHT22;9168;51.194;6.840;2023-08-17T06:39:32;19.20;99.90
18083;DHT22;9168;51.194;6.840;2023-08-17T06:41:59;19.20;99.90
18083;DHT22;9168;51.194;6.840;2023-08-17T06:44:26;19.20;99.90
18083;DHT22;9168;51.194;6.840;2023-08-17T06:46:54;19.20;99.90
18083;DHT22;9168;51.194;6.840;2023-08-17T06:49:22;19.20;99.90
18083;DHT22;9168;51.194;6.840;2023-08-17T06:51:49;19.20;99.90
18083;DHT22;9168;51.194;6.840;2023-08-17T06:54:16;19.30;99.90
18083;DHT22;9168;51.194;6.840;2023-08-17T06:56:43;19.30;99.90
18083;DHT22;9168;51.194;6.840;2023-08-17T06:59:10;19.30;99.90
18083;DHT22;9168;51.194;6.840;2023-08-17T07:01:37;19.40;99.90
18083;DHT22;9168;51.194;6.840;2023-08-17T07:04:05;19.40;99.90
18083;DHT22;9168;51.194;6.840;2023-08-17T07:06:34;19.40;99.90
18083;DHT22;9168;51.194;6.840;2023-08-17T07:09:01;19.50;99.90
18083;DHT22;9168;51.194;6.840;2023-08-17T07:11:30;19.50;99.90
18083;DHT22;9168;51.194;6.840;2023-08-17T07:13:57;19.50;99.90
18083;DHT22;9168;51.194;6.840;2023-08-17T07:16:24;19.60;99.90
18083;DHT22;9168;51.194;6.840;2023-08-17T07:18:51;19.70;99.90
18083;DHT22;9168;51.194;6.840;2023-08-17T07:21:18;19.70;99.90
18083;DHT22;9168;51.194;6.840;2023-08-17T07:23:46;19.80;99.90
18083;DHT22;9168;51.194;6.840;2023-08-17T07:26:13;19.70;99.90
18083;DHT22;9168;51.194;6.840;2023-08-17T07:28:40;19.80;99.90
18083;DHT22;9168;51.194;6.840;2023-08-17T07:31:07;19.80;99.90
18083;DHT22;9168;51.194;6.840;2023-08-17T07:33:33;19.90;99.90
18083;DHT22;9168;51.194;6.840;2023-08-17T07:36:00;19.90;99.90
18083;DHT22;9168;51.194;6.840;2023-08-17T07:38:27;19.90;99.90
18083;DHT22;9168;51.194;6.840;2023-08-17T07:40:56;19.90;99.90
18083;DHT22;9168;51.194;6.840;2023-08-17T07:43:23;20.00;99.90
18083;DHT22;9168;51.194;6.840;2023-08-17T07:45:54;20.00;99.90
18083;DHT22;9168;51.194;6.840;2023-08-17T07:48:21;20.00;99.90
18083;DHT22;9168;51.194;6.840;2023-08-17T07:50:49;20.10;99.90
18083;DHT22;9168;51.194;6.840;2023-08-17T07:53:16;20.10;99.90
18083;DHT22;9168;51.194;6.840;2023-08-17T07:55:43;20.10;99.90
18083;DHT22;9168;51.194;6.840;2023-08-17T07:58:11;20.10;99.90
18083;DHT22;9168;51.194;6.840;2023-08-17T08:00:38;20.20;99.90
18083;DHT22;9168;51.194;6.840;2023-08-17T08:03:05;20.20;99.90
18083;DHT22;9168;51.194;6.840;2023-08-17T08:05:32;20.20;99.90
18083;DHT22;9168;51.194;6.840;2023-08-17T08:07:59;20.20;99.90
18083;DHT22;9168;51.194;6.840;2023-08-17T08:10:27;20.20;99.90
18083;DHT22;9168;51.194;6.840;2023-08-17T08:12:55;20.30;99.90
18083;DHT22;9168;51.194;6.840;2023-08-17T08:15:23;20.30;99.90
18083;DHT22;9168;51.194;6.840;2023-08-17T08:17:50;20.30;99.90
18083;DHT22;9168;51.194;6.840;2023-08-17T08:20:17;20.30;99.90
18083;DHT22;9168;51.194;6.840;2023-08-17T08:22:44;20.40;99.90
18083;DHT22;9168;51.194;6.840;2023-08-17T08:25:11;20.40;99.90
18083;DHT22;9168;51.194;6.840;2023-08-17T08:27:37;20.40;99.90
18083;DHT22;9168;51.194;6.840;2023-08-17T08:30:06;20.40;99.90
18083;DHT22;9168;51.194;6.840;2023-08-17T08:32:35;20.50;99.90
18083;DHT22;9168;51.194;6.840;2023-08-17T08:35:02;20.40;99.90
18083;DHT22;9168;51.194;6.840;2023-08-17T08:37:29;20.50;99.90
18083;DHT22;9168;51.194;6.840;2023-08-17T08:39:56;20.50;99.90
18083;DHT22;9168;51.194;6.840;2023-08-17T08:42:23;20.60;99.90
18083;DHT22;9168;51.194;6.840;2023-08-17T08:44:51;20.60;99.90
18083;DHT22;9168;51.194;6.840;2023-08-17T08:47:18;20.60;99.90
18083;DHT22;9168;51.194;6.840;2023-08-17T08:49:58;20.60;99.90
18083;DHT22;9168;51.194;6.840;2023-08-17T08:52:32;20.60;99.90
18083;DHT22;9168;51.194;6.840;2023-08-17T08:55:03;20.70;99.90
18083;DHT22;9168;51.194;6.840;2023-08-17T08:57:32;20.70;99.90
18083;DHT22;9168;51.194;6.840;2023-08-17T08:59:59;20.70;99.90
18083;DHT22;9168;51.194;6.840;2023-08-17T09:02:26;20.70;99.90
18083;DHT22;9168;51.194;6.840;2023-08-17T09:04:55;20.70;99.90
18083;DHT22;9168;51.194;6.840;2023-08-17T09:07:22;20.80;99.90
18083;DHT22;9168;51.194;6.840;2023-08-17T09:09:50;20.80;99.90
18083;DHT22;9168;51.194;6.840;2023-08-17T09:12:17;20.80;99.90
18083;DHT22;9168;51.194;6.840;2023-08-17T09:14:44;20.80;99.90
18083;DHT22;9168;51.194;6.840;2023-08-17T09:17:11;20.90;99.90
18083;DHT22;9168;51.194;6.840;2023-08-17T09:19:38;20.90;99.90
18083;DHT22;9168;51.194;6.840;2023-08-17T09:22:06;20.90;99.90
18083;DHT22;9168;51.194;6.840;2023-08-17T09:24:36;20.90;99.90
18083;DHT22;9168;51.194;6.840;2023-08-17T09:27:04;20.90;99.90
18083;DHT22;9168;51.194;6.840;2023-08-17T09:29:31;20.90;99.90
18083;DHT22;9168;51.194;6.840;2023-08-17T09:32:04;21.00;99.90
18083;DHT22;9168;51.194;6.840;2023-08-17T09:34:32;21.00;99.90
18083;DHT22;9168;51.194;6.840;2023-08-17T09:37:02;21.00;99.90
18083;DHT22;9168;51.194;6.840;2023-08-17T09:39:31;21.00;99.90
18083;DHT22;9168;51.194;6.840;2023-08-17T09:41:59;21.00;99.90
18083;DHT22;9168;51.194;6.840;2023-08-17T09:44:26;21.00;99.90
18083;DHT22;9168;51.194;6.840;2023-08-17T09:46:55;21.10;99.90
18083;DHT22;9168;51.194;6.840;2023-08-17T09:49:23;21.10;99.90
18083;DHT22;9168;51.194;6.840;2023-08-17T09:51:50;21.10;99.90
18083;DHT22;9168;51.194;6.840;2023-08-17T09:54:21;21.10;99.90
18083;DHT22;9168;51.194;6.840;2023-08-17T09:56:50;21.10;99.90
18083;DHT22;9168;51.194;6.840;2023-08-17T09:59:18;21.10;99.90
18083;DHT22;9168;51.194;6.840;2023-08-17T10:01:47;21.20;99.90
18083;DHT22;9168;51.194;6.840;2023-08-17T10:04:17;21.20;99.90
18083;DHT22;9168;51.194;6.840;2023-08-17T10:06:48;21.30;99.90
18083;DHT22;9168;51.194;6.840;2023-08-17T10:09:22;21.30;99.90
18083;DHT22;9168;51.194;6.840;2023-08-17T10:11:52;21.40;99.90
18083;DHT22;9168;51.194;6.840;2023-08-17T10:14:23;21.40;99.90
18083;DHT22;9168;51.194;6.840;2023-08-17T10:16:57;21.40;99.90
18083;DHT22;9168;51.194;6.840;2023-08-17T10:19:33;21.40;99.90
18083;DHT22;9168;51.194;6.840;2023-08-17T10:22:08;21.50;99.90
18083;DHT22;9168;51.194;6.840;2023-08-17T10:24:38;21.50;99.90
18083;DHT22;9168;51.194;6.840;2023-08-17T10:27:07;21.60;99.90
18083;DHT22;9168;51.194;6.840;2023-08-17T10:29:36;21.60;99.90
18083;DHT22;9168;51.194;6.840;2023-08-17T10:32:05;21.60;99.90
18083;DHT22;9168;51.194;6.840;2023-08-17T10:34:33;21.60;99.90
18083;DHT22;9168;51.194;6.840;2023-08-17T10:37:01;21.60;99.90
18083;DHT22;9168;51.194;6.840;2023-08-17T10:39:29;21.60;99.90
18083;DHT22;9168;51.194;6.840;2023-08-17T10:41:57;21.60;99.90
18083;DHT22;9168;51.194;6.840;2023-08-17T10:44:40;21.70;99.90
18083;DHT22;9168;51.194;6.840;2023-08-17T10:47:24;21.70;99.90
18083;DHT22;9168;51.194;6.840;2023-08-17T10:49:52;21.60;99.90
18083;DHT22;9168;51.194;6.840;2023-08-17T10:52:26;21.60;99.90
18083;DHT22;9168;51.194;6.840;2023-08-17T10:54:53;21.60;99.90
18083;DHT22;9168;51.194;6.840;2023-08-17T10:57:36;21.60;99.90
18083;DHT22;9168;51.194;6.840;2023-08-17T11:00:14;21.50;99.90
18083;DHT22;9168;51.194;6.840;2023-08-17T11:02:43;21.50;99.90
18083;DHT22;9168;51.194;6.840;2023-08-17T11:05:11;21.50;99.90
18083;DHT22;9168;51.194;6.840;2023-08-17T11:07:40;21.50;99.90
18083;DHT22;9168;51.194;6.840;2023-08-17T11:10:27;21.50;99.90
18083;DHT22;9168;51.194;6.840;2023-08-17T11:12:54;21.60;99.90
18083;DHT22;9168;51.194;6.840;2023-08-17T11:15:24;21.60;99.90
18083;DHT22;9168;51.194;6.840;2023-08-17T11:17:51;21.60;99.90
18083;DHT22;9168;51.194;6.840;2023-08-17T11:20:18;21.70;99.90
18083;DHT22;9168;51.194;6.840;2023-08-17T11:22:46;21.70;99.90
18083;DHT22;9168;51.194;6.840;2023-08-17T11:25:13;21.80;99.90
18083;DHT22;9168;51.194;6.840;2023-08-17T11:27:41;21.90;99.90
18083;DHT22;9168;51.194;6.840;2023-08-17T11:30:09;21.90;99.90
18083;DHT22;9168;51.194;6.840;2023-08-17T11:32:38;22.00;99.90
18083;DHT22;9168;51.194;6.840;2023-08-17T11:35:05;22.00;99.90
18083;DHT22;9168;51.194;6.840;2023-08-17T11:37:33;22.10;99.90
18083;DHT22;9168;51.194;6.840;2023-08-17T11:39:59;22.10;99.90
18083;DHT22;9168;51.194;6.840;2023-08-17T11:42:26;22.20;99.90
18083;DHT22;9168;51.194;6.840;2023-08-17T11:44:53;22.20;99.90
18083;DHT22;9168;51.194;6.840;2023-08-17T11:47:21;22.20;99.90
18083;DHT22;9168;51.194;6.840;2023-08-17T11:49:49;22.30;99.90
18083;DHT22;9168;51.194;6.840;2023-08-17T11:52:16;22.40;99.90
18083;DHT22;9168;51.194;6.840;2023-08-17T11:54:43;22.40;99.90
18083;DHT22;9168;51.194;6.840;2023-08-17T11:57:10;22.50;99.90
18083;DHT22;9168;51.194;6.840;2023-08-17T11:59:38;22.70;99.90
18083;DHT22;9168;51.194;6.840;2023-08-17T12:02:05;22.80;99.90
18083;DHT22;9168;51.194;6.840;2023-08-17T12:04:32;22.90;99.90
18083;DHT22;9168;51.194;6.840;2023-08-17T12:07:00;22.90;99.90
18083;DHT22;9168;51.194;6.840;2023-08-17T12:09:27;23.00;99.90
18083;DHT22;9168;51.194;6.840;2023-08-17T12:11:58;23.00;99.90
18083;DHT22;9168;51.194;6.840;2023-08-17T12:14:26;23.00;99.90
18083;DHT22;9168;51.194;6.840;2023-08-17T12:16:53;23.00;99.90
18083;DHT22;9168;51.194;6.840;2023-08-17T12:19:21;23.00;99.90
18083;DHT22;9168;51.194;6.840;2023-08-17T12:21:48;23.00;99.90
18083;DHT22;9168;51.194;6.840;2023-08-17T12:24:17;23.10;99.90
18083;DHT22;9168;51.194;6.840;2023-08-17T12:26:45;23.20;99.90
18083;DHT22;9168;51.194;6.840;2023-08-17T12:29:13;23.20;99.90
18083;DHT22;9168;51.194;6.840;2023-08-17T12:31:40;23.20;99.90
18083;DHT22;9168;51.194;6.840;2023-08-17T12:34:07;23.20;99.90
18083;DHT22;9168;51.194;6.840;2023-08-17T12:36:34;23.10;99.90
18083;DHT22;9168;51.194;6.840;2023-08-17T12:39:03;23.20;99.90
18083;DHT22;9168;51.194;6.840;2023-08-17T12:41:32;23.10;99.90
18083;DHT22;9168;51.194;6.840;2023-08-17T12:43:59;23.10;99.90
18083;DHT22;9168;51.194;6.840;2023-08-17T12:46:27;23.10;99.90
18083;DHT22;9168;51.194;6.840;2023-08-17T12:48:58;23.00;99.90
18083;DHT22;9168;51.194;6.840;2023-08-17T12:51:25;23.00;99.90
18083;DHT22;9168;51.194;6.840;2023-08-17T12:54:00;23.00;99.90
18083;DHT22;9168;51.194;6.840;2023-08-17T12:56:38;23.00;99.90
18083;DHT22;9168;51.194;6.840;2023-08-17T12:59:05;23.00;99.90
18083;DHT22;9168;51.194;6.840;2023-08-17T13:01:32;22.90;99.90
18083;DHT22;9168;51.194;6.840;2023-08-17T13:03:59;22.90;99.90
18083;DHT22;9168;51.194;6.840;2023-08-17T13:06:26;22.90;99.90
18083;DHT22;9168;51.194;6.840;2023-08-17T13:08:54;22.90;99.90
18083;DHT22;9168;51.194;6.840;2023-08-17T13:11:21;23.00;99.90
18083;DHT22;9168;51.194;6.840;2023-08-17T13:13:49;23.00;99.90
18083;DHT22;9168;51.194;6.840;2023-08-17T13:16:16;23.00;99.90
18083;DHT22;9168;51.194;6.840;2023-08-17T13:18:43;23.10;99.90
18083;DHT22;9168;51.194;6.840;2023-08-17T13:21:10;23.10;99.90
18083;DHT22;9168;51.194;6.840;2023-08-17T13:23:41;23.10;99.90
18083;DHT22;9168;51.194;6.840;2023-08-17T13:26:08;23.10;99.90
18083;DHT22;9168;51.194;6.840;2023-08-17T13:28:35;23.10;99.90
18083;DHT22;9168;51.194;6.840;2023-08-17T13:31:03;23.20;99.90
18083;DHT22;9168;51.194;6.840;2023-08-17T13:33:30;23.40;99.90
18083;DHT22;9168;51.194;6.840;2023-08-17T13:35:57;23.50;99.90
18083;DHT22;9168;51.194;6.840;2023-08-17T13:38:24;23.50;99.90
18083;DHT22;9168;51.194;6.840;2023-08-17T13:40:50;23.70;99.90
18083;DHT22;9168;51.194;6.840;2023-08-17T13:43:17;23.80;99.90
18083;DHT22;9168;51.194;6.840;2023-08-17T13:45:44;23.80;99.90
18083;DHT22;9168;51.194;6.840;2023-08-17T13:48:12;23.70;99.90
18083;DHT22;9168;51.194;6.840;2023-08-17T13:50:40;23.60;99.90
18083;DHT22;9168;51.194;6.840;2023-08-17T13:53:07;23.50;99.90
18083;DHT22;9168;51.194;6.840;2023-08-17T13:55:34;23.40;99.90
18083;DHT22;9168;51.194;6.840;2023-08-17T13:58:01;23.40;99.90
18083;DHT22;9168;51.194;6.840;2023-08-17T14:00:28;23.30;99.90
18083;DHT22;9168;51.194;6.840;2023-08-17T14:02:55;23.30;99.90
18083;DHT22;9168;51.194;6.840;2023-08-17T14:05:23;23.50;99.90
18083;DHT22;9168;51.194;6.840;2023-08-17T14:07:50;24.10;99.90
18083;DHT22;9168;51.194;6.840;2023-08-17T14:10:17;24.80;99.90
18083;DHT22;9168;51.194;6.840;2023-08-17T14:12:43;25.30;99.90
18083;DHT22;9168;51.194;6.840;2023-08-17T14:15:10;25.70;99.90
18083;DHT22;9168;51.194;6.840;2023-08-17T14:17:37;25.90;99.90
18083;DHT22;9168;51.194;6.840;2023-08-17T14:20:05;25.90;99.90
18083;DHT22;9168;51.194;6.840;2023-08-17T14:22:33;25.90;99.90
18083;DHT22;9168;51.194;6.840;2023-08-17T14:25:00;25.80;99.90
18083;DHT22;9168;51.194;6.840;2023-08-17T14:27:28;25.80;99.90
18083;DHT22;9168;51.194;6.840;2023-08-17T14:29:56;25.60;99.90
18083;DHT22;9168;51.194;6.840;2023-08-17T14:32:26;25.50;99.90
18083;DHT22;9168;51.194;6.840;2023-08-17T14:34:54;25.30;99.90
18083;DHT22;9168;51.194;6.840;2023-08-17T14:37:21;25.00;99.90
18083;DHT22;9168;51.194;6.840;2023-08-17T14:39:49;24.80;99.90
18083;DHT22;9168;51.194;6.840;2023-08-17T14:42:16;24.50;99.90
18083;DHT22;9168;51.194;6.840;2023-08-17T14:44:43;24.20;99.90
18083;DHT22;9168;51.194;6.840;2023-08-17T14:47:10;24.00;99.90
18083;DHT22;9168;51.194;6.840;2023-08-17T14:49:37;23.80;99.90
18083;DHT22;9168;51.194;6.840;2023-08-17T14:52:04;23.70;99.90
18083;DHT22;9168;51.194;6.840;2023-08-17T14:54:31;23.50;99.90
18083;DHT22;9168;51.194;6.840;2023-08-17T14:56:59;23.40;99.90
18083;DHT22;9168;51.194;6.840;2023-08-17T14:59:26;23.30;99.90
18083;DHT22;9168;51.194;6.840;2023-08-17T15:01:53;23.30;99.90
18083;DHT22;9168;51.194;6.840;2023-08-17T15:04:22;23.10;99.90
18083;DHT22;9168;51.194;6.840;2023-08-17T15:06:48;23.00;99.90
18083;DHT22;9168;51.194;6.840;2023-08-17T15:09:15;23.00;99.90
18083;DHT22;9168;51.194;6.840;2023-08-17T15:11:42;22.90;99.90
18083;DHT22;9168;51.194;6.840;2023-08-17T15:14:10;22.90;99.90
18083;DHT22;9168;51.194;6.840;2023-08-17T15:16:37;22.80;99.90
18083;DHT22;9168;51.194;6.840;2023-08-17T15:19:04;22.70;99.90
18083;DHT22;9168;51.194;6.840;2023-08-17T15:21:31;22.80;99.90
18083;DHT22;9168;51.194;6.840;2023-08-17T15:23:58;22.80;99.90
18083;DHT22;9168;51.194;6.840;2023-08-17T15:26:25;22.90;99.90
18083;DHT22;9168;51.194;6.840;2023-08-17T15:28:52;23.00;99.90
18083;DHT22;9168;51.194;6.840;2023-08-17T15:31:20;23.10;99.90
18083;DHT22;9168;51.194;6.840;2023-08-17T15:33:47;23.20;99.90
18083;DHT22;9168;51.194;6.840;2023-08-17T15:36:14;23.30;99.90
18083;DHT22;9168;51.194;6.840;2023-08-17T15:38:43;23.40;99.90
18083;DHT22;9168;51.194;6.840;2023-08-17T15:41:10;23.60;99.90
18083;DHT22;9168;51.194;6.840;2023-08-17T15:43:37;23.70;99.90
18083;DHT22;9168;51.194;6.840;2023-08-17T15:46:04;23.80;99.90
18083;DHT22;9168;51.194;6.840;2023-08-17T15:48:33;23.80;99.90